Time;durP1;ratioP1;P1;durP2;ratioP2;P2;SDS_P1;SDS_P2;PMS_P1;PMS_P2;Temp;Humidity;BMP_temperature;BMP_pressure;BME280_temperature;BME280_humidity;BME280_pressure;Samples;Min_cycle;Max_cycle;Signal;HPM_P1;HPM_P2
2021/09/14 00:02:23;;;;;;;13.73;12.73;;;14.80;79.20;;;;;;5214629;28;20473;-71
2021/09/14 00:04:55;;;;;;;13.00;12.00;;;14.80;79.50;;;;;;5217633;28;20780;-71
2021/09/14 00:07:27;;;;;;;12.75;11.75;;;14.80;79.50;;;;;;5207979;28;20562;-71
2021/09/14 00:10:00;;;;;;;13.02;12.02;;;14.80;79.90;;;;;;5215838;28;20033;-72
2021/09/14 00:12:32;;;;;;;13.68;12.57;;;14.80;79.90;;;;;;5217455;28;20501;-74
2021/09/14 00:15:06;;;;;;;13.45;12.30;;;14.80;80.30;;;;;;5215468;28;20057;-71
2021/09/14 00:17:39;;;;;;;13.05;12.05;;;14.70;80.00;;;;;;5216531;28;20052;-72
2021/09/14 00:20:11;;;;;;;13.30;12.30;;;14.70;80.30;;;;;;5183551;28;20041;-72
2021/09/14 00:22:43;;;;;;;13.75;12.75;;;14.80;80.40;;;;;;5217286;28;20045;-72
2021/09/14 00:25:15;;;;;;;14.02;12.82;;;14.70;80.40;;;;;;5216437;28;20076;-73
2021/09/14 00:27:48;;;;;;;13.80;12.50;;;14.80;80.60;;;;;;5215000;28;20885;-72
2021/09/14 00:30:20;;;;;;;13.95;12.68;;;14.80;80.60;;;;;;5206718;28;20052;-73
2021/09/14 00:32:53;;;;;;;13.50;12.40;;;14.80;80.90;;;;;;5215032;28;20048;-72
2021/09/14 00:35:25;;;;;;;13.30;12.30;;;14.80;81.10;;;;;;5216674;28;20111;-72
2021/09/14 00:37:56;;;;;;;13.90;12.70;;;14.80;80.40;;;;;;5215168;28;20037;-73
2021/09/14 00:40:28;;;;;;;14.55;13.20;;;14.90;80.30;;;;;;5216109;28;20048;-72
2021/09/14 00:43:00;;;;;;;13.18;12.18;;;14.90;80.40;;;;;;5215805;28;20068;-72
2021/09/14 00:45:32;;;;;;;13.70;12.57;;;14.90;80.70;;;;;;5199311;28;20124;-73
2021/09/14 00:48:05;;;;;;;12.70;11.73;;;14.90;81.10;;;;;;5199080;28;20055;-72
2021/09/14 00:50:37;;;;;;;12.75;11.80;;;14.90;81.00;;;;;;5215599;28;20134;-71
2021/09/14 00:53:10;;;;;;;12.75;11.75;;;14.90;81.20;;;;;;5199703;28;20131;-73
2021/09/14 00:55:42;;;;;;;13.98;12.70;;;15.00;81.20;;;;;;5215418;28;20133;-71
2021/09/14 00:58:15;;;;;;;13.05;11.95;;;14.90;80.90;;;;;;5210185;28;20073;-71
2021/09/14 01:00:47;;;;;;;13.77;12.68;;;15.00;80.80;;;;;;5214723;28;20056;-72
2021/09/14 01:03:19;;;;;;;13.48;12.30;;;15.00;81.00;;;;;;5215631;28;20068;-72
2021/09/14 01:05:52;;;;;;;13.60;12.50;;;14.90;81.10;;;;;;5198750;28;20040;-71
2021/09/14 01:08:24;;;;;;;13.25;12.25;;;14.90;81.30;;;;;;5183275;28;20044;-72
2021/09/14 01:10:57;;;;;;;13.93;12.73;;;14.80;81.50;;;;;;5215018;28;20091;-72
2021/09/14 01:13:29;;;;;;;14.10;12.98;;;14.80;81.80;;;;;;5215830;28;20040;-73
2021/09/14 01:16:11;;;;;;;13.18;12.18;;;14.80;81.80;;;;;;5214121;28;20052;-72
2021/09/14 01:18:46;;;;;;;14.05;12.75;;;14.80;82.00;;;;;;5199837;28;20052;-73
2021/09/14 01:21:21;;;;;;;14.15;12.85;;;14.70;82.10;;;;;;5214733;28;20071;-72
2021/09/14 01:23:55;;;;;;;13.75;12.65;;;14.80;82.40;;;;;;5199561;28;20041;-72
2021/09/14 01:26:28;;;;;;;14.95;13.55;;;14.80;82.40;;;;;;5213756;28;20067;-72
2021/09/14 01:30:12;;;;;;;14.25;13.05;;;14.80;81.90;;;;;;5217349;28;20127;-72
2021/09/14 01:32:08;;;;;;;13.93;12.82;;;14.80;82.20;;;;;;5201685;28;20456;-72
2021/09/14 01:34:40;;;;;;;14.45;13.15;;;14.80;81.90;;;;;;5215800;28;20053;-72
2021/09/14 01:37:13;;;;;;;13.50;12.50;;;14.80;81.90;;;;;;5198208;28;20033;-72
2021/09/14 01:39:45;;;;;;;14.82;13.52;;;14.80;82.10;;;;;;5204072;28;20045;-72
2021/09/14 01:42:17;;;;;;;14.90;13.60;;;14.80;82.50;;;;;;5230150;28;20107;-72
2021/09/14 01:44:49;;;;;;;14.48;13.38;;;14.80;82.20;;;;;;5199379;28;20040;-72
2021/09/14 01:47:22;;;;;;;13.82;12.73;;;14.80;82.20;;;;;;5213405;28;20052;-72
2021/09/14 01:49:54;;;;;;;14.38;13.18;;;14.80;82.00;;;;;;5205445;28;20053;-73
2021/09/14 01:52:28;;;;;;;14.43;13.32;;;14.80;82.00;;;;;;5214824;28;20033;-72
2021/09/14 01:55:01;;;;;;;14.45;13.05;;;14.80;82.00;;;;;;5216875;28;20095;-71
2021/09/14 01:57:36;;;;;;;13.63;12.63;;;14.80;82.10;;;;;;5192638;28;20115;-73
2021/09/14 02:00:22;;;;;;;13.57;12.55;;;14.70;82.20;;;;;;5201901;28;20135;-73
2021/09/14 02:09:17;;;;;;;14.65;13.27;;;14.70;82.50;;;;;;5215104;28;20056;-73
2021/09/14 02:59:30;;;;;;;14.00;12.90;;;14.50;83.00;;;;;;5214465;28;20052;-72
2021/09/14 03:02:05;;;;;;;13.45;12.30;;;14.50;83.30;;;;;;5213905;28;20073;-72
2021/09/14 03:04:37;;;;;;;13.43;12.35;;;14.40;82.70;;;;;;5214098;28;20388;-72
2021/09/14 03:07:10;;;;;;;14.60;13.38;;;14.40;83.00;;;;;;5211678;28;20130;-72
2021/09/14 03:09:46;;;;;;;13.82;12.73;;;14.40;83.30;;;;;;5198135;28;20041;-71
2021/09/14 03:12:18;;;;;;;13.57;12.38;;;14.40;83.60;;;;;;5213748;28;20048;-72
2021/09/14 03:14:53;;;;;;;13.27;12.05;;;14.40;83.70;;;;;;5188912;28;20048;-72
2021/09/14 03:17:26;;;;;;;13.52;12.43;;;14.40;83.70;;;;;;5197071;28;20513;-72
2021/09/14 03:19:58;;;;;;;13.70;12.52;;;14.30;83.60;;;;;;5204315;28;20041;-72
2021/09/14 03:22:32;;;;;;;13.45;12.45;;;14.20;83.40;;;;;;5229269;28;20666;-72
2021/09/14 03:25:05;;;;;;;12.65;11.55;;;14.10;84.20;;;;;;5215608;28;20418;-73
2021/09/14 03:27:37;;;;;;;13.20;12.10;;;14.10;83.50;;;;;;5213132;28;20041;-73
2021/09/14 03:30:10;;;;;;;13.32;12.13;;;14.10;83.90;;;;;;5208506;28;20057;-72
2021/09/14 03:32:43;;;;;;;12.95;11.82;;;14.10;84.10;;;;;;5215162;28;20079;-72
2021/09/14 03:35:16;;;;;;;12.80;11.70;;;14.10;83.40;;;;;;5212530;28;20073;-72
2021/09/14 03:37:51;;;;;;;13.32;12.02;;;14.10;83.70;;;;;;5212861;28;20045;-72
2021/09/14 03:40:24;;;;;;;12.88;11.77;;;14.10;84.30;;;;;;5212949;28;20048;-72
2021/09/14 03:42:56;;;;;;;13.07;11.80;;;14.10;84.70;;;;;;5214110;28;20044;-72
2021/09/14 03:45:28;;;;;;;13.25;12.15;;;14.10;84.60;;;;;;5216329;28;20253;-72
2021/09/14 03:48:00;;;;;;;13.00;11.90;;;14.10;84.70;;;;;;5200948;28;20037;-72
2021/09/14 03:50:35;;;;;;;12.45;11.45;;;14.10;84.50;;;;;;5202232;28;20123;-73
2021/09/14 03:53:07;;;;;;;12.77;11.68;;;14.10;84.50;;;;;;5223751;28;20041;-73
2021/09/14 03:55:39;;;;;;;12.43;11.43;;;14.10;84.60;;;;;;5196348;28;20048;-73
2021/09/14 03:58:11;;;;;;;12.55;11.55;;;14.10;84.60;;;;;;5210120;28;20052;-73
2021/09/14 04:00:50;;;;;;;12.82;11.57;;;14.10;84.80;;;;;;5219025;28;20059;-72
2021/09/14 04:09:03;;;;;;;13.18;12.02;;;14.10;84.80;;;;;;5217237;28;20049;-73
2021/09/14 04:11:48;;;;;;;13.18;11.95;;;14.10;84.40;;;;;;5215905;28;20048;-73
2021/09/14 04:14:20;;;;;;;13.57;12.27;;;14.10;84.20;;;;;;5201664;28;20048;-71
2021/09/14 04:16:52;;;;;;;13.65;12.55;;;14.10;84.90;;;;;;5217191;28;20045;-72
2021/09/14 04:19:26;;;;;;;12.52;11.32;;;14.10;84.40;;;;;;5216759;28;20041;-73
2021/09/14 04:21:59;;;;;;;12.38;11.38;;;14.10;84.10;;;;;;5205276;28;20041;-71
2021/09/14 04:24:37;;;;;;;13.18;11.95;;;14.00;84.40;;;;;;5207122;28;20744;-72
2021/09/14 04:27:10;;;;;;;13.02;11.85;;;14.00;84.50;;;;;;5215200;28;20532;-72
2021/09/14 04:29:44;;;;;;;12.77;11.70;;;14.00;83.60;;;;;;5217724;28;20402;-72
2021/09/14 04:32:16;;;;;;;12.48;11.32;;;14.00;84.90;;;;;;5207710;28;20628;-72
2021/09/14 04:34:48;;;;;;;12.77;11.68;;;13.90;84.80;;;;;;5224347;28;20695;-72
2021/09/14 04:37:20;;;;;;;12.35;11.35;;;14.00;85.20;;;;;;5199209;28;20041;-73
2021/09/14 04:39:53;;;;;;;13.00;11.88;;;13.90;85.10;;;;;;5216895;28;20562;-73
2021/09/14 04:42:25;;;;;;;12.48;11.38;;;13.90;85.30;;;;;;5232106;28;20118;-73
2021/09/14 04:44:57;;;;;;;13.02;11.93;;;14.00;85.00;;;;;;5216988;28;20135;-72
2021/09/14 04:47:33;;;;;;;12.70;11.70;;;14.00;84.40;;;;;;5182612;28;20049;-73
2021/09/14 04:50:07;;;;;;;12.98;11.88;;;13.90;85.10;;;;;;5199655;28;20052;-73
2021/09/14 04:52:38;;;;;;;13.32;11.98;;;13.90;84.70;;;;;;5214416;28;20514;-72
2021/09/14 04:55:11;;;;;;;12.25;11.10;;;13.90;85.10;;;;;;5199844;28;20060;-72
2021/09/14 04:57:43;;;;;;;12.07;10.98;;;13.90;85.30;;;;;;5214520;28;20864;-72
2021/09/14 05:00:15;;;;;;;12.88;11.88;;;13.90;85.30;;;;;;5207171;28;20982;-72
2021/09/14 05:02:48;;;;;;;12.48;11.48;;;14.00;85.40;;;;;;5197224;28;20049;-72
2021/09/14 05:05:21;;;;;;;13.10;11.90;;;14.00;85.10;;;;;;5214765;28;20082;-72
2021/09/14 05:07:54;;;;;;;12.80;11.60;;;14.00;84.80;;;;;;5212448;28;20098;-71
2021/09/14 05:10:29;;;;;;;13.15;12.05;;;14.00;85.00;;;;;;5199573;28;20521;-72
2021/09/14 05:13:03;;;;;;;12.52;11.38;;;14.00;85.40;;;;;;5214573;28;20138;-72
2021/09/14 05:15:35;;;;;;;13.25;12.00;;;14.00;85.50;;;;;;5191871;28;20781;-71
2021/09/14 05:18:26;;;;;;;12.77;11.52;;;14.00;85.60;;;;;;5200322;28;20525;-72
2021/09/14 05:21:02;;;;;;;12.93;11.73;;;14.00;85.30;;;;;;5213634;28;20044;-72
2021/09/14 05:23:34;;;;;;;12.55;11.45;;;14.10;85.30;;;;;;5205179;28;20040;-71
2021/09/14 05:26:07;;;;;;;13.07;11.98;;;14.10;85.60;;;;;;5179186;28;20513;-71
2021/09/14 05:28:40;;;;;;;13.35;12.10;;;14.10;86.00;;;;;;5215195;28;20502;-70
2021/09/14 05:31:12;;;;;;;12.63;11.52;;;14.10;86.10;;;;;;5212489;28;20049;-71
2021/09/14 05:33:45;;;;;;;13.18;12.07;;;14.10;86.10;;;;;;5211752;28;20071;-70
2021/09/14 05:36:17;;;;;;;12.98;11.95;;;14.20;85.80;;;;;;5221837;28;20453;-73
2021/09/14 05:38:51;;;;;;;13.68;12.43;;;14.30;86.10;;;;;;5206399;28;20080;-71
2021/09/14 05:41:23;;;;;;;12.93;11.73;;;14.40;85.80;;;;;;5193244;28;20040;-71
2021/09/14 05:43:55;;;;;;;12.50;11.30;;;14.50;86.60;;;;;;5206107;28;20075;-72
2021/09/14 05:46:27;;;;;;;13.02;11.93;;;14.60;84.40;;;;;;5208340;28;20140;-71
2021/09/14 05:48:59;;;;;;;13.43;12.27;;;14.70;85.40;;;;;;5207851;28;21054;-71
2021/09/14 05:51:31;;;;;;;12.85;11.60;;;14.80;84.60;;;;;;5207833;28;20091;-72
2021/09/14 05:54:06;;;;;;;13.57;12.13;;;14.80;84.10;;;;;;5229828;28;20047;-73
2021/09/14 05:56:42;;;;;;;13.30;12.20;;;14.90;83.90;;;;;;5202909;28;20645;-72
2021/09/14 05:59:16;;;;;;;13.98;12.85;;;15.00;83.80;;;;;;5211623;28;20107;-72
2021/09/14 06:01:49;;;;;;;13.70;12.55;;;15.00;84.30;;;;;;5213755;28;20049;-71
2021/09/14 06:04:21;;;;;;;13.63;12.52;;;15.00;85.00;;;;;;5202670;28;20541;-70
2021/09/14 06:06:53;;;;;;;14.32;13.20;;;15.20;84.40;;;;;;5211591;28;20127;-71
2021/09/14 06:09:25;;;;;;;13.80;12.70;;;15.30;84.40;;;;;;5213414;28;20052;-70
2021/09/14 06:11:58;;;;;;;14.10;12.93;;;15.40;84.70;;;;;;5205550;28;20045;-71
2021/09/14 06:14:30;;;;;;;13.80;12.60;;;15.60;85.10;;;;;;5213497;28;20131;-71
2021/09/14 06:17:03;;;;;;;14.15;12.93;;;15.80;84.50;;;;;;5212935;28;20053;-71
2021/09/14 06:19:36;;;;;;;15.05;13.75;;;15.90;84.20;;;;;;5229607;28;20046;-71
2021/09/14 06:22:08;;;;;;;14.10;12.98;;;16.10;83.60;;;;;;5213578;28;21134;-71
2021/09/14 06:24:40;;;;;;;14.23;13.07;;;16.10;84.20;;;;;;5190219;28;20041;-70
2021/09/14 06:27:13;;;;;;;15.75;13.40;;;16.20;83.20;;;;;;5210812;28;20591;-70
2021/09/14 06:29:45;;;;;;;14.70;13.40;;;16.30;83.60;;;;;;5214092;28;20040;-71
2021/09/14 06:32:19;;;;;;;15.32;14.02;;;16.40;84.60;;;;;;5196946;28;20045;-70
2021/09/14 06:35:01;;;;;;;14.65;13.50;;;16.40;83.40;;;;;;5205442;28;20484;-71
2021/09/14 06:37:40;;;;;;;14.45;13.25;;;16.40;83.70;;;;;;5193088;28;20128;-71
2021/09/14 06:40:12;;;;;;;14.52;13.43;;;16.50;84.40;;;;;;5213140;28;20056;-71
2021/09/14 06:42:46;;;;;;;14.80;13.70;;;16.70;83.60;;;;;;5199045;28;20490;-71
2021/09/14 06:45:50;;;;;;;15.88;14.55;;;16.80;84.20;;;;;;5202552;28;20041;-71
2021/09/14 06:48:32;;;;;;;15.43;14.02;;;17.00;84.20;;;;;;5214194;28;20582;-70
2021/09/14 06:51:04;;;;;;;14.75;13.43;;;17.10;83.00;;;;;;5214393;28;20052;-70
2021/09/14 06:53:36;;;;;;;15.60;14.27;;;17.30;83.20;;;;;;5214803;28;20644;-72
2021/09/14 06:56:08;;;;;;;15.13;13.93;;;17.40;83.40;;;;;;5194049;28;20099;-71
2021/09/14 06:58:43;;;;;;;16.27;14.90;;;17.50;83.00;;;;;;5208624;28;20665;-70
2021/09/14 07:01:22;;;;;;;16.45;14.95;;;17.60;83.50;;;;;;5213462;28;20410;-70
2021/09/14 07:03:55;;;;;;;15.43;14.23;;;17.70;81.90;;;;;;5213370;28;20406;-71
2021/09/14 07:06:27;;;;;;;16.05;14.75;;;17.80;82.50;;;;;;5212962;28;20045;-70
2021/09/14 07:08:59;;;;;;;15.65;14.35;;;17.90;81.90;;;;;;5216071;28;20098;-70
2021/09/14 07:11:31;;;;;;;16.77;15.48;;;18.00;81.10;;;;;;5214302;28;20044;-72
2021/09/14 07:14:03;;;;;;;16.80;15.35;;;18.20;80.90;;;;;;5213943;28;20045;-71
2021/09/14 07:16:35;;;;;;;16.80;15.27;;;18.30;80.60;;;;;;5214633;28;20049;-71
2021/09/14 07:19:07;;;;;;;16.75;15.40;;;18.40;80.90;;;;;;5216553;28;20625;-71
2021/09/14 07:21:39;;;;;;;16.38;15.18;;;18.60;80.60;;;;;;5219420;28;20053;-72
2021/09/14 07:24:11;;;;;;;16.27;14.98;;;18.60;79.20;;;;;;5219696;28;20119;-71
2021/09/14 07:26:43;;;;;;;16.48;15.18;;;18.60;79.80;;;;;;5180821;28;20049;-71
2021/09/14 07:29:15;;;;;;;16.40;15.10;;;18.80;79.70;;;;;;5219029;28;20138;-71
2021/09/14 07:31:48;;;;;;;16.48;15.18;;;18.80;79.10;;;;;;5219180;28;20076;-71
2021/09/14 07:34:20;;;;;;;16.38;14.98;;;18.90;79.50;;;;;;5218449;28;20045;-71
2021/09/14 07:36:52;;;;;;;16.30;15.00;;;18.90;79.30;;;;;;5217176;28;20056;-71
2021/09/14 07:39:24;;;;;;;16.35;15.05;;;19.00;78.60;;;;;;5219597;28;20094;-71
2021/09/14 07:41:56;;;;;;;17.15;15.85;;;19.00;78.40;;;;;;5218834;28;20048;-71
2021/09/14 07:44:28;;;;;;;17.30;16.00;;;19.10;78.80;;;;;;5219544;28;20049;-72
2021/09/14 07:47:00;;;;;;;16.80;15.50;;;19.20;77.90;;;;;;5218724;28;20063;-71
2021/09/14 07:49:32;;;;;;;16.80;15.50;;;19.30;78.40;;;;;;5219490;28;20148;-71
2021/09/14 07:52:04;;;;;;;17.70;16.40;;;19.40;78.70;;;;;;5219164;28;20053;-71
2021/09/14 07:54:36;;;;;;;17.70;16.40;;;19.50;78.20;;;;;;5217993;28;20044;-71
2021/09/14 07:57:08;;;;;;;17.90;16.50;;;19.60;78.50;;;;;;5216486;28;20052;-71
2021/09/14 07:59:40;;;;;;;17.77;16.30;;;19.70;78.00;;;;;;5219054;28;20045;-71
2021/09/14 08:02:12;;;;;;;29.67;26.88;;;19.90;77.30;;;;;;5217930;28;20045;-71
2021/09/14 08:04:44;;;;;;;25.33;22.77;;;20.00;77.60;;;;;;5217702;28;20099;-71
2021/09/14 08:07:16;;;;;;;54.25;43.10;;;20.20;76.80;;;;;;5217339;28;20046;-70
2021/09/14 08:09:48;;;;;;;35.22;30.33;;;20.30;76.70;;;;;;5218433;28;20061;-71
2021/09/14 08:12:20;;;;;;;21.50;19.67;;;20.40;77.00;;;;;;5208207;28;20581;-71
2021/09/14 08:14:52;;;;;;;18.17;16.77;;;20.60;77.60;;;;;;5216757;28;20469;-71
2021/09/14 08:17:24;;;;;;;20.38;18.48;;;20.70;77.30;;;;;;5216773;28;20048;-71
2021/09/14 08:19:56;;;;;;;27.02;24.25;;;20.80;76.70;;;;;;5219222;28;20049;-71
2021/09/14 08:22:28;;;;;;;31.88;28.88;;;21.00;77.00;;;;;;5216529;28;20106;-71
2021/09/14 08:25:00;;;;;;;22.35;20.35;;;21.10;73.50;;;;;;5218012;28;20072;-71
2021/09/14 08:27:32;;;;;;;20.60;18.95;;;21.20;74.50;;;;;;5217473;28;20033;-72
2021/09/14 08:30:06;;;;;;;18.13;16.65;;;21.30;73.30;;;;;;5217223;28;20597;-72
2021/09/14 08:32:38;;;;;;;18.92;17.33;;;21.40;71.30;;;;;;5218035;28;20521;-72
2021/09/14 08:35:11;;;;;;;19.00;17.50;;;21.50;69.60;;;;;;5200848;28;20245;-71
2021/09/14 08:37:43;;;;;;;18.48;17.13;;;21.50;70.90;;;;;;5216983;28;20068;-71
2021/09/14 08:40:15;;;;;;;19.20;17.48;;;21.60;71.70;;;;;;5218477;28;20055;-71
2021/09/14 08:42:48;;;;;;;19.17;17.58;;;21.70;70.40;;;;;;5217375;28;20044;-71
2021/09/14 08:45:20;;;;;;;18.15;16.85;;;21.80;70.50;;;;;;5216273;28;20111;-71
2021/09/14 08:47:53;;;;;;;18.92;17.33;;;21.90;67.80;;;;;;5217583;28;20065;-72
2021/09/14 08:50:25;;;;;;;18.70;17.30;;;21.90;68.80;;;;;;5217685;28;20065;-71
2021/09/14 08:52:57;;;;;;;18.27;16.88;;;22.10;71.30;;;;;;5214751;28;20051;-71
2021/09/14 08:55:29;;;;;;;18.55;17.25;;;22.10;69.90;;;;;;5217664;28;20068;-72
2021/09/14 08:58:05;;;;;;;18.70;17.38;;;22.10;67.90;;;;;;5215473;28;20490;-72
2021/09/14 09:00:38;;;;;;;18.75;17.25;;;22.20;66.30;;;;;;5218035;28;20677;-72
2021/09/14 09:03:11;;;;;;;18.77;17.25;;;22.30;66.80;;;;;;5217707;28;20433;-72
2021/09/14 09:05:43;;;;;;;19.02;17.63;;;22.40;65.30;;;;;;5216349;28;20049;-70
2021/09/14 09:08:20;;;;;;;18.35;16.95;;;22.50;66.40;;;;;;5214633;28;20100;-71
2021/09/14 09:11:12;;;;;;;18.33;16.73;;;22.60;65.40;;;;;;5205976;28;20128;-72
2021/09/14 09:13:44;;;;;;;18.55;17.15;;;22.70;62.80;;;;;;5200256;28;20064;-72
2021/09/14 09:16:28;;;;;;;18.98;17.42;;;22.80;66.80;;;;;;5214333;28;20099;-72
2021/09/14 09:19:03;;;;;;;18.60;17.10;;;22.90;61.80;;;;;;5205768;28;20694;-71
2021/09/14 09:21:39;;;;;;;18.45;17.05;;;23.00;62.50;;;;;;5195611;28;20061;-72
2021/09/14 09:24:13;;;;;;;18.83;17.48;;;23.00;64.80;;;;;;5217794;28;20119;-72
2021/09/14 09:26:45;;;;;;;19.02;17.55;;;23.10;65.20;;;;;;5216414;28;20099;-71
2021/09/14 09:29:23;;;;;;;19.02;17.70;;;23.20;62.10;;;;;;5217600;28;20183;-71
2021/09/14 09:31:56;;;;;;;18.60;17.20;;;23.20;65.80;;;;;;5214548;28;20068;-71
2021/09/14 09:34:28;;;;;;;19.02;17.63;;;23.30;62.10;;;;;;5205974;28;20794;-71
2021/09/14 09:37:05;;;;;;;19.25;17.77;;;23.40;62.90;;;;;;5215564;28;20521;-72
2021/09/14 09:39:47;;;;;;;19.02;17.65;;;23.50;62.40;;;;;;5217293;28;20037;-71
2021/09/14 09:42:21;;;;;;;19.08;17.60;;;23.50;65.30;;;;;;5213703;28;20092;-71
2021/09/14 09:44:55;;;;;;;19.13;17.63;;;23.60;65.70;;;;;;5229512;28;20056;-71
2021/09/14 09:47:27;;;;;;;19.67;18.00;;;23.70;58.10;;;;;;5213524;28;20036;-71
2021/09/14 09:49:59;;;;;;;18.55;17.25;;;23.80;61.40;;;;;;5213904;28;20048;-71
2021/09/14 09:52:31;;;;;;;19.67;18.17;;;23.90;57.60;;;;;;5212176;28;20124;-72
2021/09/14 09:55:03;;;;;;;20.00;18.45;;;23.90;61.70;;;;;;5213598;28;20064;-73
2021/09/14 09:57:36;;;;;;;18.95;17.55;;;24.00;61.20;;;;;;5212345;28;20076;-71
2021/09/14 10:00:13;;;;;;;19.77;18.27;;;24.20;61.70;;;;;;5212334;28;20044;-73
2021/09/14 10:02:57;;;;;;;18.90;17.50;;;24.20;58.20;;;;;;5211962;28;20041;-72
2021/09/14 10:05:32;;;;;;;19.80;18.27;;;24.30;61.90;;;;;;5212138;28;20040;-73
2021/09/14 10:08:09;;;;;;;19.23;17.83;;;24.30;62.80;;;;;;5213899;28;20091;-73
2021/09/14 10:10:42;;;;;;;19.77;18.13;;;24.30;61.60;;;;;;5211920;28;20521;-70
2021/09/14 10:13:13;;;;;;;18.80;17.40;;;24.30;58.20;;;;;;5214409;28;20132;-71
2021/09/14 10:15:46;;;;;;;19.27;17.88;;;24.30;60.30;;;;;;5212986;28;20129;-70
2021/09/14 10:18:26;;;;;;;19.60;18.13;;;24.30;62.20;;;;;;5215467;28;20056;-72
2021/09/14 10:20:59;;;;;;;18.75;17.42;;;24.40;61.60;;;;;;5216419;28;20129;-71
2021/09/14 10:23:34;;;;;;;19.00;17.60;;;24.40;61.60;;;;;;5216141;28;20099;-71
2021/09/14 10:26:08;;;;;;;19.05;17.65;;;24.40;63.20;;;;;;5213344;28;20124;-71
2021/09/14 10:28:45;;;;;;;19.58;18.17;;;24.50;62.60;;;;;;5215630;28;20053;-71
2021/09/14 10:31:22;;;;;;;19.35;17.95;;;24.50;62.10;;;;;;5214088;28;20442;-70
2021/09/14 10:34:08;;;;;;;18.75;17.35;;;24.60;63.40;;;;;;5202130;28;20508;-69
2021/09/14 10:36:42;;;;;;;19.42;17.98;;;24.60;61.40;;;;;;5209162;28;20041;-71
2021/09/14 10:39:21;;;;;;;19.55;17.95;;;24.60;63.50;;;;;;5211299;28;20098;-71
2021/09/14 10:41:54;;;;;;;19.65;18.15;;;24.70;63.00;;;;;;5219187;28;20040;-70
2021/09/14 10:44:31;;;;;;;20.08;18.58;;;24.60;62.40;;;;;;5212849;28;20069;-71
2021/09/14 10:47:07;;;;;;;20.00;18.52;;;24.70;62.30;;;;;;5209861;28;20041;-71
2021/09/14 10:50:00;;;;;;;19.45;18.00;;;24.80;61.90;;;;;;5205496;28;20124;-70
2021/09/14 10:52:43;;;;;;;19.40;18.00;;;24.80;60.20;;;;;;5213343;28;20477;-71
2021/09/14 10:55:17;;;;;;;19.73;18.33;;;24.90;59.40;;;;;;5213922;28;20138;-70
2021/09/14 10:57:52;;;;;;;19.05;17.75;;;25.00;60.10;;;;;;5215807;28;20063;-71
2021/09/14 11:00:32;;;;;;;19.05;17.75;;;25.00;58.60;;;;;;5213323;28;20040;-71
2021/09/14 11:03:05;;;;;;;19.30;17.80;;;25.10;59.40;;;;;;5216262;28;20041;-70
2021/09/14 11:05:37;;;;;;;19.13;17.73;;;25.20;58.80;;;;;;5216961;28;20045;-71
2021/09/14 11:08:09;;;;;;;19.02;17.73;;;25.30;57.70;;;;;;5217584;28;20441;-72
2021/09/14 11:10:44;;;;;;;18.95;17.55;;;25.40;57.60;;;;;;5213090;28;20105;-71
2021/09/14 11:13:24;;;;;;;19.63;18.13;;;25.50;57.20;;;;;;5224057;28;20076;-72
2021/09/14 11:16:02;;;;;;;20.33;18.73;;;25.60;57.60;;;;;;5226649;28;20048;-72
2021/09/14 11:18:35;;;;;;;20.17;18.85;;;25.80;57.60;;;;;;5215566;28;20156;-71
2021/09/14 11:21:13;;;;;;;20.38;18.88;;;25.80;56.40;;;;;;5215362;28;20140;-71
2021/09/14 11:23:47;;;;;;;21.02;19.52;;;25.80;55.80;;;;;;5218087;28;20418;-72
2021/09/14 11:26:20;;;;;;;20.08;18.48;;;25.90;56.00;;;;;;5216274;28;20399;-72
2021/09/14 11:28:57;;;;;;;19.75;18.35;;;25.90;54.30;;;;;;5218246;28;20037;-72
2021/09/14 11:31:31;;;;;;;19.52;18.13;;;26.00;56.20;;;;;;5217832;28;20805;-72
2021/09/14 11:34:05;;;;;;;20.20;18.67;;;26.10;55.70;;;;;;5231604;28;20036;-71
2021/09/14 11:36:38;;;;;;;20.40;18.90;;;26.20;56.40;;;;;;5215465;28;20060;-71
2021/09/14 11:39:10;;;;;;;20.52;19.10;;;26.20;55.70;;;;;;5215022;28;20128;-71
2021/09/14 11:41:43;;;;;;;20.83;19.35;;;26.30;55.50;;;;;;5217165;28;20136;-73
2021/09/14 11:44:25;;;;;;;20.30;18.80;;;26.50;55.60;;;;;;5217983;28;20120;-71
2021/09/14 11:47:07;;;;;;;20.17;18.85;;;26.50;55.10;;;;;;5217060;28;20045;-71
2021/09/14 11:49:49;;;;;;;20.58;19.08;;;26.60;58.00;;;;;;5216620;28;20068;-72
2021/09/14 11:52:21;;;;;;;19.83;18.50;;;26.70;55.50;;;;;;5217367;28;20138;-71
2021/09/14 11:54:54;;;;;;;20.25;18.75;;;26.70;55.70;;;;;;5215520;28;20047;-71
2021/09/14 11:57:26;;;;;;;19.55;18.05;;;26.70;55.60;;;;;;5215532;28;20127;-71
2021/09/14 12:00:10;;;;;;;19.30;18.00;;;26.70;55.60;;;;;;5215565;28;20108;-71
2021/09/14 12:02:50;;;;;;;19.65;18.15;;;26.80;54.70;;;;;;5218377;28;20542;-71
2021/09/14 12:05:22;;;;;;;19.88;18.58;;;26.80;53.40;;;;;;5217349;28;20106;-72
2021/09/14 12:07:57;;;;;;;19.83;18.33;;;26.70;52.60;;;;;;5217543;28;20148;-72
2021/09/14 12:10:29;;;;;;;19.40;17.92;;;26.80;53.20;;;;;;5215801;28;20041;-73
2021/09/14 12:13:02;;;;;;;20.25;18.85;;;26.70;52.90;;;;;;5216721;28;20052;-74
2021/09/14 12:15:36;;;;;;;19.60;18.20;;;26.70;54.50;;;;;;5218518;28;20418;-71
2021/09/14 12:18:07;;;;;;;21.75;20.05;;;26.70;53.80;;;;;;5214693;28;20041;-72
2021/09/14 12:20:39;;;;;;;19.90;18.50;;;26.70;52.80;;;;;;5215424;28;20040;-71
2021/09/14 12:23:13;;;;;;;19.50;18.20;;;26.70;52.50;;;;;;5216477;28;20048;-71
2021/09/14 12:25:45;;;;;;;19.77;18.33;;;26.80;53.80;;;;;;5215160;28;20128;-72
2021/09/14 12:28:17;;;;;;;19.65;18.27;;;26.80;51.70;;;;;;5214867;28;20077;-72
2021/09/14 12:30:49;;;;;;;19.42;18.02;;;26.80;52.00;;;;;;5215489;28;20123;-72
2021/09/14 12:33:21;;;;;;;20.52;19.02;;;26.80;49.80;;;;;;5216811;28;20191;-72
2021/09/14 12:35:53;;;;;;;20.00;18.60;;;26.80;51.10;;;;;;5216322;28;20045;-72
2021/09/14 12:38:25;;;;;;;20.13;18.73;;;26.80;51.90;;;;;;5217363;28;20486;-72
2021/09/14 12:40:57;;;;;;;19.95;18.60;;;27.00;52.10;;;;;;5213401;28;20045;-72
2021/09/14 12:43:28;;;;;;;19.70;17.98;;;26.90;49.50;;;;;;5215825;28;20053;-73
2021/09/14 12:46:01;;;;;;;18.65;17.25;;;26.80;52.20;;;;;;5232231;28;20041;-72
2021/09/14 12:48:33;;;;;;;19.83;18.42;;;26.60;52.60;;;;;;5197380;28;20068;-72
2021/09/14 12:51:05;;;;;;;19.00;17.70;;;26.50;51.10;;;;;;5214744;28;20056;-72
2021/09/14 12:53:37;;;;;;;19.75;18.35;;;26.30;52.20;;;;;;5215626;28;20103;-70
2021/09/14 12:56:10;;;;;;;19.45;18.15;;;26.40;53.30;;;;;;5177331;28;20135;-71
2021/09/14 12:58:52;;;;;;;18.92;17.63;;;26.50;52.80;;;;;;5214707;28;20493;-72
2021/09/14 13:01:25;;;;;;;19.65;18.23;;;26.50;54.20;;;;;;5215443;28;20124;-73
2021/09/14 13:03:57;;;;;;;18.85;17.55;;;26.40;54.80;;;;;;5230855;28;20064;-73
2021/09/14 13:06:30;;;;;;;19.30;18.00;;;26.40;54.10;;;;;;5214018;28;20115;-73
2021/09/14 13:09:03;;;;;;;19.40;17.90;;;26.50;54.50;;;;;;5215582;28;20044;-73
2021/09/14 13:11:35;;;;;;;20.10;18.67;;;26.40;55.40;;;;;;5213925;28;20091;-73
2021/09/14 13:16:58;;;;;;;19.83;18.42;;;26.40;55.50;;;;;;5213431;28;20057;-73
2021/09/14 13:19:30;;;;;;;19.85;18.45;;;26.50;53.70;;;;;;5217195;28;20077;-72
2021/09/14 13:22:02;;;;;;;19.50;18.10;;;26.50;55.90;;;;;;5214873;28;20056;-73
2021/09/14 13:24:34;;;;;;;19.55;18.15;;;26.50;55.00;;;;;;5216842;28;20709;-73
2021/09/14 13:27:06;;;;;;;19.23;17.83;;;26.50;53.40;;;;;;5213504;28;20103;-73
2021/09/14 13:29:38;;;;;;;20.50;19.05;;;26.60;56.10;;;;;;5214671;28;20128;-72
2021/09/14 13:32:12;;;;;;;20.13;18.73;;;26.60;54.60;;;;;;5214850;28;20518;-72
2021/09/14 13:34:44;;;;;;;19.88;18.48;;;26.70;54.50;;;;;;5213211;28;20136;-73
2021/09/14 13:37:16;;;;;;;20.33;18.92;;;26.80;55.30;;;;;;5191714;28;20095;-72
2021/09/14 13:39:48;;;;;;;20.88;19.27;;;26.90;55.10;;;;;;5231432;28;20044;-72
2021/09/14 13:42:24;;;;;;;20.73;19.13;;;27.00;54.80;;;;;;5194577;28;20132;-72
2021/09/14 13:47:28;;;;;;;20.23;18.58;;;27.00;52.80;;;;;;5211820;28;20410;-72
2021/09/14 13:50:01;;;;;;;19.83;18.42;;;26.90;51.30;;;;;;5213497;28;20069;-72
2021/09/14 13:52:33;;;;;;;19.63;18.13;;;27.00;51.70;;;;;;5211677;28;20041;-73
2021/09/14 13:55:06;;;;;;;19.10;17.80;;;27.00;54.80;;;;;;5211766;28;20045;-73
2021/09/14 13:57:38;;;;;;;18.92;17.52;;;27.00;53.50;;;;;;5229798;28;20111;-74
2021/09/14 14:00:11;;;;;;;18.35;17.05;;;26.80;51.30;;;;;;5212405;28;20130;-73
2021/09/14 14:02:47;;;;;;;19.15;17.83;;;26.70;52.70;;;;;;5214946;28;20049;-72
2021/09/14 14:05:19;;;;;;;19.27;17.88;;;26.70;53.00;;;;;;5191286;28;20091;-73
2021/09/14 14:07:52;;;;;;;19.60;17.95;;;26.60;54.10;;;;;;5215179;28;20044;-72